sensor_id;sensor_type;location;lat;lon;timestamp;pressure;altitude;pressure_sealevel;temperature;humidity
51299;BME280;37382;45.192;9.790;2024-03-22T00:02:09;101709.47;;;13.11;100.00
51299;BME280;37382;45.192;9.790;2024-03-22T00:04:38;101723.03;;;13.04;100.00
51299;BME280;37382;45.192;9.790;2024-03-22T00:07:05;101709.56;;;13.17;100.00
51299;BME280;37382;45.192;9.790;2024-03-22T00:09:31;101716.16;;;13.08;100.00
51299;BME280;37382;45.192;9.790;2024-03-22T00:11:58;101718.78;;;13.16;100.00
51299;BME280;37382;45.192;9.790;2024-03-22T00:14:24;101711.28;;;12.89;100.00
51299;BME280;37382;45.192;9.790;2024-03-22T00:16:51;101714.84;;;13.04;100.00
51299;BME280;37382;45.192;9.790;2024-03-22T00:19:17;101711.75;;;12.92;100.00
51299;BME280;37382;45.192;9.790;2024-03-22T00:21:44;101710.34;;;12.81;100.00
51299;BME280;37382;45.192;9.790;2024-03-22T00:24:10;101709.03;;;12.62;100.00
51299;BME280;37382;45.192;9.790;2024-03-22T00:26:37;101712.13;;;12.74;100.00
51299;BME280;37382;45.192;9.790;2024-03-22T00:29:03;101709.50;;;12.66;100.00
51299;BME280;37382;45.192;9.790;2024-03-22T00:31:30;101713.47;;;12.49;100.00
51299;BME280;37382;45.192;9.790;2024-03-22T00:33:57;101708.38;;;12.75;100.00
51299;BME280;37382;45.192;9.790;2024-03-22T00:36:23;101706.31;;;12.62;100.00
51299;BME280;37382;45.192;9.790;2024-03-22T00:38:50;101706.38;;;12.69;100.00
51299;BME280;37382;45.192;9.790;2024-03-22T00:41:16;101709.03;;;12.48;100.00
51299;BME280;37382;45.192;9.790;2024-03-22T00:43:43;101703.09;;;12.59;100.00
51299;BME280;37382;45.192;9.790;2024-03-22T00:46:09;101701.78;;;12.55;100.00
51299;BME280;37382;45.192;9.790;2024-03-22T00:48:36;101714.56;;;12.54;100.00
51299;BME280;37382;45.192;9.790;2024-03-22T00:51:02;101713.16;;;12.43;100.00
51299;BME280;37382;45.192;9.790;2024-03-22T00:53:29;101712.34;;;12.58;100.00
51299;BME280;37382;45.192;9.790;2024-03-22T00:55:56;101700.56;;;12.72;100.00
51299;BME280;37382;45.192;9.790;2024-03-22T00:58:28;101705.94;;;12.66;100.00
51299;BME280;37382;45.192;9.790;2024-03-22T01:00:55;101709.47;;;12.51;100.00
51299;BME280;37382;45.192;9.790;2024-03-22T01:03:22;101702.16;;;12.52;100.00
51299;BME280;37382;45.192;9.790;2024-03-22T01:05:48;101700.47;;;12.66;100.00
51299;BME280;37382;45.192;9.790;2024-03-22T01:08:15;101701.50;;;12.64;100.00
51299;BME280;37382;45.192;9.790;2024-03-22T01:10:42;101705.63;;;12.75;100.00
51299;BME280;37382;45.192;9.790;2024-03-22T01:13:08;101704.97;;;12.58;100.00
51299;BME280;37382;45.192;9.790;2024-03-22T01:15:35;101705.72;;;12.52;100.00
51299;BME280;37382;45.192;9.790;2024-03-22T01:18:02;101708.94;;;12.71;100.00
51299;BME280;37382;45.192;9.790;2024-03-22T01:20:28;101701.97;;;12.68;100.00
51299;BME280;37382;45.192;9.790;2024-03-22T01:22:55;101703.19;;;12.51;100.00
51299;BME280;37382;45.192;9.790;2024-03-22T01:25:21;101706.19;;;12.56;100.00
51299;BME280;37382;45.192;9.790;2024-03-22T01:27:48;101699.53;;;12.73;100.00
51299;BME280;37382;45.192;9.790;2024-03-22T01:30:14;101692.72;;;12.54;100.00
51299;BME280;37382;45.192;9.790;2024-03-22T01:32:41;101705.16;;;12.57;100.00
51299;BME280;37382;45.192;9.790;2024-03-22T01:35:08;101706.00;;;12.42;100.00
51299;BME280;37382;45.192;9.790;2024-03-22T01:37:34;101691.69;;;12.40;100.00
51299;BME280;37382;45.192;9.790;2024-03-22T01:40:02;101684.44;;;12.33;100.00
51299;BME280;37382;45.192;9.790;2024-03-22T01:42:30;101689.63;;;12.27;100.00
51299;BME280;37382;45.192;9.790;2024-03-22T01:44:57;101692.63;;;12.33;100.00
51299;BME280;37382;45.192;9.790;2024-03-22T01:47:23;101696.97;;;12.04;100.00
51299;BME280;37382;45.192;9.790;2024-03-22T01:49:52;101697.94;;;12.11;100.00
51299;BME280;37382;45.192;9.790;2024-03-22T01:52:20;101694.19;;;12.12;100.00
51299;BME280;37382;45.192;9.790;2024-03-22T01:54:47;101701.09;;;12.23;100.00
51299;BME280;37382;45.192;9.790;2024-03-22T01:57:14;101698.09;;;11.95;100.00
51299;BME280;37382;45.192;9.790;2024-03-22T01:59:41;101687.38;;;11.93;100.00
51299;BME280;37382;45.192;9.790;2024-03-22T02:02:07;101697.94;;;11.88;100.00
51299;BME280;37382;45.192;9.790;2024-03-22T02:04:34;101698.31;;;11.85;100.00
51299;BME280;37382;45.192;9.790;2024-03-22T02:07:00;101709.00;;;11.09;100.00
51299;BME280;37382;45.192;9.790;2024-03-22T02:09:27;101706.94;;;10.71;100.00
51299;BME280;37382;45.192;9.790;2024-03-22T02:11:53;101708.16;;;10.52;100.00
51299;BME280;37382;45.192;9.790;2024-03-22T02:14:20;101709.69;;;10.55;100.00
51299;BME280;37382;45.192;9.790;2024-03-22T02:16:46;101714.50;;;10.36;100.00
51299;BME280;37382;45.192;9.790;2024-03-22T02:19:12;101712.44;;;10.46;100.00
51299;BME280;37382;45.192;9.790;2024-03-22T02:21:39;101712.25;;;10.56;100.00
51299;BME280;37382;45.192;9.790;2024-03-22T02:24:05;101712.00;;;10.82;100.00
51299;BME280;37382;45.192;9.790;2024-03-22T02:26:32;101709.47;;;10.73;100.00
51299;BME280;37382;45.192;9.790;2024-03-22T02:28:58;101711.72;;;10.61;100.00
51299;BME280;37382;45.192;9.790;2024-03-22T02:31:25;101713.78;;;10.59;100.00
51299;BME280;37382;45.192;9.790;2024-03-22T02:33:53;101713.91;;;10.65;100.00
51299;BME280;37382;45.192;9.790;2024-03-22T02:36:19;101712.81;;;10.91;100.00
51299;BME280;37382;45.192;9.790;2024-03-22T02:38:46;101712.09;;;11.06;100.00
51299;BME280;37382;45.192;9.790;2024-03-22T02:41:12;101714.81;;;11.06;100.00
51299;BME280;37382;45.192;9.790;2024-03-22T02:43:39;101705.25;;;11.41;100.00
51299;BME280;37382;45.192;9.790;2024-03-22T02:46:05;101705.78;;;11.36;100.00
51299;BME280;37382;45.192;9.790;2024-03-22T02:48:32;101704.41;;;11.41;100.00
51299;BME280;37382;45.192;9.790;2024-03-22T02:50:58;101703.38;;;11.42;100.00
51299;BME280;37382;45.192;9.790;2024-03-22T02:53:25;101699.03;;;11.55;100.00
51299;BME280;37382;45.192;9.790;2024-03-22T02:55:51;101698.28;;;11.38;100.00
51299;BME280;37382;45.192;9.790;2024-03-22T02:58:20;101688.44;;;11.37;100.00
51299;BME280;37382;45.192;9.790;2024-03-22T03:00:47;101689.72;;;11.18;100.00
51299;BME280;37382;45.192;9.790;2024-03-22T03:03:14;101688.97;;;11.33;100.00
51299;BME280;37382;45.192;9.790;2024-03-22T03:05:42;101687.56;;;11.37;100.00
51299;BME280;37382;45.192;9.790;2024-03-22T03:08:08;101682.66;;;11.32;100.00
51299;BME280;37382;45.192;9.790;2024-03-22T03:10:36;101688.72;;;11.43;100.00
51299;BME280;37382;45.192;9.790;2024-03-22T03:13:02;101696.00;;;11.50;100.00
51299;BME280;37382;45.192;9.790;2024-03-22T03:15:29;101705.19;;;11.49;100.00
51299;BME280;37382;45.192;9.790;2024-03-22T03:17:55;101712.34;;;11.19;100.00
51299;BME280;37382;45.192;9.790;2024-03-22T03:20:22;101710.50;;;11.19;100.00
51299;BME280;37382;45.192;9.790;2024-03-22T03:22:48;101706.88;;;11.27;100.00
51299;BME280;37382;45.192;9.790;2024-03-22T03:25:14;101703.41;;;10.46;100.00
51299;BME280;37382;45.192;9.790;2024-03-22T03:27:41;101709.91;;;9.79;100.00
51299;BME280;37382;45.192;9.790;2024-03-22T03:30:08;101711.78;;;9.78;100.00
51299;BME280;37382;45.192;9.790;2024-03-22T03:32:35;101719.09;;;9.78;100.00
51299;BME280;37382;45.192;9.790;2024-03-22T03:35:02;101713.63;;;9.61;100.00
51299;BME280;37382;45.192;9.790;2024-03-22T03:37:30;101725.31;;;9.46;100.00
51299;BME280;37382;45.192;9.790;2024-03-22T03:39:57;101732.19;;;9.23;100.00
51299;BME280;37382;45.192;9.790;2024-03-22T03:42:24;101739.19;;;9.34;100.00
51299;BME280;37382;45.192;9.790;2024-03-22T03:44:50;101736.53;;;9.51;100.00
51299;BME280;37382;45.192;9.790;2024-03-22T03:47:17;101731.13;;;10.00;100.00
51299;BME280;37382;45.192;9.790;2024-03-22T03:49:45;101715.00;;;10.31;100.00
51299;BME280;37382;45.192;9.790;2024-03-22T03:52:12;101727.38;;;10.50;100.00
51299;BME280;37382;45.192;9.790;2024-03-22T03:54:38;101729.09;;;10.52;100.00
51299;BME280;37382;45.192;9.790;2024-03-22T03:57:05;101729.25;;;10.58;100.00
51299;BME280;37382;45.192;9.790;2024-03-22T03:59:31;101733.63;;;10.76;100.00
51299;BME280;37382;45.192;9.790;2024-03-22T04:01:58;101733.88;;;10.33;100.00
51299;BME280;37382;45.192;9.790;2024-03-22T04:04:24;101739.66;;;10.38;100.00
51299;BME280;37382;45.192;9.790;2024-03-22T04:06:50;101739.28;;;10.00;100.00
51299;BME280;37382;45.192;9.790;2024-03-22T04:09:17;101739.81;;;10.04;100.00
51299;BME280;37382;45.192;9.790;2024-03-22T04:11:43;101742.69;;;9.86;100.00
51299;BME280;37382;45.192;9.790;2024-03-22T04:14:10;101751.16;;;9.66;100.00
51299;BME280;37382;45.192;9.790;2024-03-22T04:16:37;101751.50;;;9.63;100.00
51299;BME280;37382;45.192;9.790;2024-03-22T04:19:04;101746.75;;;9.82;100.00
51299;BME280;37382;45.192;9.790;2024-03-22T04:21:30;101750.66;;;9.95;100.00
51299;BME280;37382;45.192;9.790;2024-03-22T04:23:57;101750.00;;;9.85;100.00
51299;BME280;37382;45.192;9.790;2024-03-22T04:26:23;101763.69;;;9.59;100.00
51299;BME280;37382;45.192;9.790;2024-03-22T04:28:49;101758.03;;;9.36;100.00
51299;BME280;37382;45.192;9.790;2024-03-22T04:31:16;101763.56;;;9.77;100.00
51299;BME280;37382;45.192;9.790;2024-03-22T04:33:42;101766.31;;;10.18;100.00
51299;BME280;37382;45.192;9.790;2024-03-22T04:36:09;101761.06;;;10.49;100.00
51299;BME280;37382;45.192;9.790;2024-03-22T04:38:35;101754.22;;;10.78;100.00
51299;BME280;37382;45.192;9.790;2024-03-22T04:41:02;101757.56;;;10.89;100.00
51299;BME280;37382;45.192;9.790;2024-03-22T04:43:29;101766.91;;;10.94;100.00
51299;BME280;37382;45.192;9.790;2024-03-22T04:45:56;101764.44;;;11.16;100.00
51299;BME280;37382;45.192;9.790;2024-03-22T04:48:23;101778.53;;;11.28;100.00
51299;BME280;37382;45.192;9.790;2024-03-22T04:50:51;101770.69;;;11.33;100.00
51299;BME280;37382;45.192;9.790;2024-03-22T04:53:19;101780.00;;;10.99;100.00
51299;BME280;37382;45.192;9.790;2024-03-22T04:55:50;101786.50;;;10.90;100.00
51299;BME280;37382;45.192;9.790;2024-03-22T04:58:21;101777.22;;;11.15;100.00
51299;BME280;37382;45.192;9.790;2024-03-22T05:00:48;101785.09;;;11.10;100.00
51299;BME280;37382;45.192;9.790;2024-03-22T05:03:16;101777.75;;;11.11;100.00
51299;BME280;37382;45.192;9.790;2024-03-22T05:05:42;101784.56;;;11.07;100.00
51299;BME280;37382;45.192;9.790;2024-03-22T05:08:09;101783.25;;;11.02;100.00
51299;BME280;37382;45.192;9.790;2024-03-22T05:10:36;101789.38;;;10.96;100.00
51299;BME280;37382;45.192;9.790;2024-03-22T05:13:02;101791.75;;;10.91;100.00
51299;BME280;37382;45.192;9.790;2024-03-22T05:15:29;101795.47;;;11.07;100.00
51299;BME280;37382;45.192;9.790;2024-03-22T05:17:57;101796.34;;;10.99;100.00
51299;BME280;37382;45.192;9.790;2024-03-22T05:20:24;101785.13;;;10.94;100.00
51299;BME280;37382;45.192;9.790;2024-03-22T05:22:50;101788.50;;;11.04;100.00
51299;BME280;37382;45.192;9.790;2024-03-22T05:25:17;101797.41;;;10.73;100.00
51299;BME280;37382;45.192;9.790;2024-03-22T05:27:44;101796.53;;;10.89;100.00
51299;BME280;37382;45.192;9.790;2024-03-22T05:30:12;101793.97;;;11.04;100.00
51299;BME280;37382;45.192;9.790;2024-03-22T05:32:42;101787.13;;;11.08;100.00
51299;BME280;37382;45.192;9.790;2024-03-22T05:35:09;101785.78;;;10.96;100.00
51299;BME280;37382;45.192;9.790;2024-03-22T05:37:35;101787.69;;;10.95;100.00
51299;BME280;37382;45.192;9.790;2024-03-22T05:40:03;101793.13;;;10.95;100.00
51299;BME280;37382;45.192;9.790;2024-03-22T05:42:31;101798.06;;;10.83;100.00
51299;BME280;37382;45.192;9.790;2024-03-22T05:44:57;101794.88;;;10.80;100.00
51299;BME280;37382;45.192;9.790;2024-03-22T05:47:24;101798.81;;;10.69;100.00
51299;BME280;37382;45.192;9.790;2024-03-22T05:49:50;101792.31;;;10.78;100.00
51299;BME280;37382;45.192;9.790;2024-03-22T05:52:18;101797.47;;;10.40;100.00
51299;BME280;37382;45.192;9.790;2024-03-22T05:54:44;101807.38;;;9.74;100.00
51299;BME280;37382;45.192;9.790;2024-03-22T05:57:11;101817.16;;;9.50;100.00
51299;BME280;37382;45.192;9.790;2024-03-22T05:59:38;101810.69;;;9.43;100.00
51299;BME280;37382;45.192;9.790;2024-03-22T06:02:05;101812.50;;;9.34;100.00
51299;BME280;37382;45.192;9.790;2024-03-22T06:04:31;101807.28;;;9.41;100.00
51299;BME280;37382;45.192;9.790;2024-03-22T06:06:58;101804.00;;;9.72;100.00
51299;BME280;37382;45.192;9.790;2024-03-22T06:09:26;101806.25;;;9.93;100.00
51299;BME280;37382;45.192;9.790;2024-03-22T06:12:13;101798.78;;;10.20;100.00
51299;BME280;37382;45.192;9.790;2024-03-22T06:14:42;101792.88;;;10.41;100.00
51299;BME280;37382;45.192;9.790;2024-03-22T06:17:10;101781.47;;;10.62;100.00
51299;BME280;37382;45.192;9.790;2024-03-22T06:19:37;101789.63;;;10.62;100.00
51299;BME280;37382;45.192;9.790;2024-03-22T06:22:03;101790.94;;;10.82;100.00
51299;BME280;37382;45.192;9.790;2024-03-22T06:24:30;101789.66;;;11.18;100.00
51299;BME280;37382;45.192;9.790;2024-03-22T06:26:56;101792.13;;;10.88;100.00
51299;BME280;37382;45.192;9.790;2024-03-22T06:29:23;101788.50;;;10.96;100.00
51299;BME280;37382;45.192;9.790;2024-03-22T06:31:50;101798.28;;;10.49;100.00
51299;BME280;37382;45.192;9.790;2024-03-22T06:34:18;101801.84;;;10.17;100.00
51299;BME280;37382;45.192;9.790;2024-03-22T06:36:46;101814.22;;;10.11;100.00
51299;BME280;37382;45.192;9.790;2024-03-22T06:39:13;101817.91;;;9.77;100.00
51299;BME280;37382;45.192;9.790;2024-03-22T06:41:40;101816.44;;;9.99;100.00
51299;BME280;37382;45.192;9.790;2024-03-22T06:44:07;101814.88;;;9.80;100.00
51299;BME280;37382;45.192;9.790;2024-03-22T06:46:39;101819.34;;;10.06;100.00
51299;BME280;37382;45.192;9.790;2024-03-22T06:49:05;101815.31;;;10.35;100.00
51299;BME280;37382;45.192;9.790;2024-03-22T06:51:32;101813.78;;;10.48;100.00
51299;BME280;37382;45.192;9.790;2024-03-22T06:53:58;101815.31;;;10.51;100.00
51299;BME280;37382;45.192;9.790;2024-03-22T06:56:24;101821.78;;;10.58;100.00
51299;BME280;37382;45.192;9.790;2024-03-22T06:58:51;101825.00;;;10.62;100.00
51299;BME280;37382;45.192;9.790;2024-03-22T07:01:17;101830.13;;;10.57;100.00
51299;BME280;37382;45.192;9.790;2024-03-22T07:03:44;101827.72;;;10.62;100.00
51299;BME280;37382;45.192;9.790;2024-03-22T07:06:13;101823.06;;;10.95;100.00
51299;BME280;37382;45.192;9.790;2024-03-22T07:08:40;101827.63;;;11.11;100.00
51299;BME280;37382;45.192;9.790;2024-03-22T07:11:06;101826.38;;;11.22;100.00
51299;BME280;37382;45.192;9.790;2024-03-22T07:13:33;101823.41;;;11.48;100.00
51299;BME280;37382;45.192;9.790;2024-03-22T07:15:59;101824.69;;;12.00;100.00
51299;BME280;37382;45.192;9.790;2024-03-22T07:18:26;101828.22;;;12.32;100.00
51299;BME280;37382;45.192;9.790;2024-03-22T07:20:52;101821.72;;;12.71;100.00
51299;BME280;37382;45.192;9.790;2024-03-22T07:23:19;101820.06;;;12.85;100.00
51299;BME280;37382;45.192;9.790;2024-03-22T07:25:45;101819.59;;;13.11;100.00
51299;BME280;37382;45.192;9.790;2024-03-22T07:28:14;101819.69;;;13.18;100.00
51299;BME280;37382;45.192;9.790;2024-03-22T07:30:42;101824.88;;;13.58;100.00
51299;BME280;37382;45.192;9.790;2024-03-22T07:33:10;101822.44;;;13.63;100.00
51299;BME280;37382;45.192;9.790;2024-03-22T07:35:39;101829.34;;;13.80;100.00
51299;BME280;37382;45.192;9.790;2024-03-22T07:38:06;101833.03;;;14.09;100.00
51299;BME280;37382;45.192;9.790;2024-03-22T07:40:32;101832.72;;;14.19;100.00
51299;BME280;37382;45.192;9.790;2024-03-22T07:42:59;101827.94;;;14.49;100.00
51299;BME280;37382;45.192;9.790;2024-03-22T07:45:25;101832.53;;;14.42;100.00
51299;BME280;37382;45.192;9.790;2024-03-22T07:47:52;101832.38;;;14.50;100.00
51299;BME280;37382;45.192;9.790;2024-03-22T07:50:18;101827.16;;;14.77;100.00
51299;BME280;37382;45.192;9.790;2024-03-22T07:52:45;101830.78;;;14.84;100.00
51299;BME280;37382;45.192;9.790;2024-03-22T07:55:11;101843.25;;;14.87;100.00
51299;BME280;37382;45.192;9.790;2024-03-22T07:57:38;101828.16;;;15.04;100.00
51299;BME280;37382;45.192;9.790;2024-03-22T08:00:05;101827.59;;;15.09;100.00
51299;BME280;37382;45.192;9.790;2024-03-22T08:02:38;101819.28;;;15.30;100.00
51299;BME280;37382;45.192;9.790;2024-03-22T08:05:05;101821.50;;;15.48;100.00
51299;BME280;37382;45.192;9.790;2024-03-22T08:07:32;101823.22;;;15.63;100.00
51299;BME280;37382;45.192;9.790;2024-03-22T08:09:58;101816.50;;;15.65;100.00
51299;BME280;37382;45.192;9.790;2024-03-22T08:12:26;101812.91;;;15.23;100.00
51299;BME280;37382;45.192;9.790;2024-03-22T08:14:53;101824.06;;;15.63;100.00
51299;BME280;37382;45.192;9.790;2024-03-22T08:17:19;101817.22;;;15.88;100.00
51299;BME280;37382;45.192;9.790;2024-03-22T08:19:46;101826.16;;;15.61;100.00
51299;BME280;37382;45.192;9.790;2024-03-22T08:22:12;101810.88;;;15.87;100.00
51299;BME280;37382;45.192;9.790;2024-03-22T08:24:40;101810.94;;;16.00;100.00
51299;BME280;37382;45.192;9.790;2024-03-22T08:27:06;101798.91;;;16.08;100.00
51299;BME280;37382;45.192;9.790;2024-03-22T08:29:33;101802.31;;;16.24;100.00
51299;BME280;37382;45.192;9.790;2024-03-22T08:31:59;101800.84;;;16.28;100.00
51299;BME280;37382;45.192;9.790;2024-03-22T08:34:26;101798.50;;;16.65;100.00
51299;BME280;37382;45.192;9.790;2024-03-22T08:36:52;101797.22;;;16.81;100.00
51299;BME280;37382;45.192;9.790;2024-03-22T08:39:18;101793.84;;;16.72;100.00
51299;BME280;37382;45.192;9.790;2024-03-22T08:41:45;101790.69;;;16.62;100.00
51299;BME280;37382;45.192;9.790;2024-03-22T08:44:11;101806.75;;;16.65;100.00
51299;BME280;37382;45.192;9.790;2024-03-22T08:46:38;101801.03;;;16.73;100.00
51299;BME280;37382;45.192;9.790;2024-03-22T08:49:04;101795.13;;;16.69;100.00
51299;BME280;37382;45.192;9.790;2024-03-22T08:51:31;101797.44;;;16.93;100.00
51299;BME280;37382;45.192;9.790;2024-03-22T08:53:57;101798.69;;;16.90;100.00
51299;BME280;37382;45.192;9.790;2024-03-22T08:56:24;101803.56;;;16.88;100.00
51299;BME280;37382;45.192;9.790;2024-03-22T08:58:50;101800.81;;;17.01;100.00
51299;BME280;37382;45.192;9.790;2024-03-22T09:01:17;101793.16;;;17.17;100.00
51299;BME280;37382;45.192;9.790;2024-03-22T09:03:43;101797.84;;;17.61;100.00
51299;BME280;37382;45.192;9.790;2024-03-22T09:06:12;101792.25;;;17.36;100.00
51299;BME280;37382;45.192;9.790;2024-03-22T09:08:39;101796.91;;;17.36;100.00
51299;BME280;37382;45.192;9.790;2024-03-22T09:11:05;101790.34;;;17.37;100.00
51299;BME280;37382;45.192;9.790;2024-03-22T09:13:32;101800.03;;;17.46;100.00
51299;BME280;37382;45.192;9.790;2024-03-22T09:16:01;101807.41;;;17.52;100.00
51299;BME280;37382;45.192;9.790;2024-03-22T09:18:28;101794.66;;;17.65;100.00
51299;BME280;37382;45.192;9.790;2024-03-22T09:20:55;101785.19;;;17.54;100.00
51299;BME280;37382;45.192;9.790;2024-03-22T09:23:22;101778.19;;;17.58;100.00
51299;BME280;37382;45.192;9.790;2024-03-22T09:25:49;101777.41;;;17.44;100.00
51299;BME280;37382;45.192;9.790;2024-03-22T09:28:15;101783.25;;;17.61;100.00
51299;BME280;37382;45.192;9.790;2024-03-22T09:30:43;101783.13;;;17.81;100.00
51299;BME280;37382;45.192;9.790;2024-03-22T09:33:14;101775.19;;;18.05;100.00
51299;BME280;37382;45.192;9.790;2024-03-22T09:35:40;101775.69;;;17.43;100.00
51299;BME280;37382;45.192;9.790;2024-03-22T09:38:07;101779.94;;;17.84;100.00
51299;BME280;37382;45.192;9.790;2024-03-22T09:40:34;101769.94;;;17.96;100.00
51299;BME280;37382;45.192;9.790;2024-03-22T09:43:04;101766.94;;;18.05;100.00
51299;BME280;37382;45.192;9.790;2024-03-22T09:45:31;101773.69;;;18.34;100.00
51299;BME280;37382;45.192;9.790;2024-03-22T09:47:58;101769.66;;;18.37;100.00
51299;BME280;37382;45.192;9.790;2024-03-22T09:50:50;101772.56;;;18.42;100.00
51299;BME280;37382;45.192;9.790;2024-03-22T09:53:21;101766.59;;;18.45;100.00
51299;BME280;37382;45.192;9.790;2024-03-22T09:55:49;101766.56;;;18.26;100.00
51299;BME280;37382;45.192;9.790;2024-03-22T09:58:16;101754.69;;;18.51;100.00
51299;BME280;37382;45.192;9.790;2024-03-22T10:00:46;101758.22;;;18.58;100.00
51299;BME280;37382;45.192;9.790;2024-03-22T10:03:12;101758.84;;;18.79;100.00
51299;BME280;37382;45.192;9.790;2024-03-22T10:05:39;101763.97;;;18.57;100.00
51299;BME280;37382;45.192;9.790;2024-03-22T10:08:06;101771.09;;;18.39;100.00
51299;BME280;37382;45.192;9.790;2024-03-22T10:10:33;101759.41;;;18.69;100.00
51299;BME280;37382;45.192;9.790;2024-03-22T10:13:03;101764.84;;;18.25;100.00
51299;BME280;37382;45.192;9.790;2024-03-22T10:15:33;101751.81;;;18.90;100.00
51299;BME280;37382;45.192;9.790;2024-03-22T10:17:59;101752.03;;;18.88;100.00
51299;BME280;37382;45.192;9.790;2024-03-22T10:20:26;101750.78;;;18.59;100.00
51299;BME280;37382;45.192;9.790;2024-03-22T10:22:56;101744.81;;;19.06;100.00
51299;BME280;37382;45.192;9.790;2024-03-22T10:25:28;101736.25;;;18.95;100.00
51299;BME280;37382;45.192;9.790;2024-03-22T10:27:55;101730.56;;;19.27;100.00
51299;BME280;37382;45.192;9.790;2024-03-22T10:30:23;101734.03;;;19.53;100.00
51299;BME280;37382;45.192;9.790;2024-03-22T10:32:51;101731.81;;;19.62;100.00
51299;BME280;37382;45.192;9.790;2024-03-22T10:35:18;101723.84;;;19.84;100.00
51299;BME280;37382;45.192;9.790;2024-03-22T10:37:44;101726.88;;;19.94;100.00
51299;BME280;37382;45.192;9.790;2024-03-22T10:40:11;101732.22;;;20.19;100.00
51299;BME280;37382;45.192;9.790;2024-03-22T10:42:39;101724.47;;;19.55;100.00
51299;BME280;37382;45.192;9.790;2024-03-22T10:45:08;101727.16;;;19.74;100.00
51299;BME280;37382;45.192;9.790;2024-03-22T10:47:35;101724.88;;;20.01;100.00
51299;BME280;37382;45.192;9.790;2024-03-22T10:50:07;101724.78;;;20.20;100.00
51299;BME280;37382;45.192;9.790;2024-03-22T10:53:13;101714.06;;;20.00;100.00
51299;BME280;37382;45.192;9.790;2024-03-22T10:55:45;101713.97;;;20.18;100.00
51299;BME280;37382;45.192;9.790;2024-03-22T10:58:25;101717.34;;;20.32;100.00
51299;BME280;37382;45.192;9.790;2024-03-22T11:00:52;101707.59;;;20.30;100.00
51299;BME280;37382;45.192;9.790;2024-03-22T11:03:25;101712.31;;;20.53;100.00
51299;BME280;37382;45.192;9.790;2024-03-22T11:05:56;101700.50;;;20.81;100.00
51299;BME280;37382;45.192;9.790;2024-03-22T11:08:27;101703.13;;;21.00;100.00
51299;BME280;37382;45.192;9.790;2024-03-22T11:10:57;101702.09;;;21.18;100.00
51299;BME280;37382;45.192;9.790;2024-03-22T11:13:24;101701.56;;;21.04;100.00
51299;BME280;37382;45.192;9.790;2024-03-22T11:15:50;101697.06;;;21.14;100.00
51299;BME280;37382;45.192;9.790;2024-03-22T11:18:19;101700.88;;;21.25;100.00
51299;BME280;37382;45.192;9.790;2024-03-22T11:20:46;101695.91;;;20.99;100.00
51299;BME280;37382;45.192;9.790;2024-03-22T11:23:13;101685.06;;;21.38;100.00
51299;BME280;37382;45.192;9.790;2024-03-22T11:25:40;101692.50;;;21.49;100.00
51299;BME280;37382;45.192;9.790;2024-03-22T11:28:06;101683.63;;;21.93;100.00
51299;BME280;37382;45.192;9.790;2024-03-22T11:30:33;101676.19;;;21.36;100.00
51299;BME280;37382;45.192;9.790;2024-03-22T11:33:03;101667.22;;;20.64;100.00
51299;BME280;37382;45.192;9.790;2024-03-22T11:35:29;101659.94;;;21.10;100.00
51299;BME280;37382;45.192;9.790;2024-03-22T11:37:56;101665.06;;;21.76;100.00
51299;BME280;37382;45.192;9.790;2024-03-22T11:40:23;101658.88;;;21.57;100.00
51299;BME280;37382;45.192;9.790;2024-03-22T11:42:52;101652.47;;;21.40;100.00
51299;BME280;37382;45.192;9.790;2024-03-22T11:45:20;101648.69;;;21.75;100.00
51299;BME280;37382;45.192;9.790;2024-03-22T11:47:47;101648.00;;;21.84;100.00
51299;BME280;37382;45.192;9.790;2024-03-22T11:50:14;101632.50;;;22.00;100.00
51299;BME280;37382;45.192;9.790;2024-03-22T11:52:41;101632.06;;;21.92;100.00
51299;BME280;37382;45.192;9.790;2024-03-22T11:55:09;101632.34;;;21.15;100.00
51299;BME280;37382;45.192;9.790;2024-03-22T11:57:36;101632.59;;;21.43;100.00
51299;BME280;37382;45.192;9.790;2024-03-22T12:00:04;101623.75;;;21.29;100.00
51299;BME280;37382;45.192;9.790;2024-03-22T12:02:45;101615.28;;;21.81;100.00
51299;BME280;37382;45.192;9.790;2024-03-22T12:05:12;101620.13;;;21.28;100.00
51299;BME280;37382;45.192;9.790;2024-03-22T12:07:39;101614.28;;;21.42;100.00
51299;BME280;37382;45.192;9.790;2024-03-22T12:10:06;101608.16;;;21.40;100.00
51299;BME280;37382;45.192;9.790;2024-03-22T12:12:33;101609.81;;;20.95;100.00
51299;BME280;37382;45.192;9.790;2024-03-22T12:15:00;101602.00;;;21.21;100.00
51299;BME280;37382;45.192;9.790;2024-03-22T12:17:26;101604.69;;;21.61;100.00
51299;BME280;37382;45.192;9.790;2024-03-22T12:19:55;101589.97;;;22.12;100.00
51299;BME280;37382;45.192;9.790;2024-03-22T12:22:24;101581.34;;;22.47;100.00
51299;BME280;37382;45.192;9.790;2024-03-22T12:24:52;101584.25;;;22.18;100.00
51299;BME280;37382;45.192;9.790;2024-03-22T12:27:18;101576.44;;;22.54;100.00
51299;BME280;37382;45.192;9.790;2024-03-22T12:29:45;101574.16;;;22.96;100.00
51299;BME280;37382;45.192;9.790;2024-03-22T12:32:11;101565.91;;;22.56;99.69
51299;BME280;37382;45.192;9.790;2024-03-22T12:34:38;101568.47;;;22.19;99.86
51299;BME280;37382;45.192;9.790;2024-03-22T12:37:04;101562.44;;;22.66;96.00
51299;BME280;37382;45.192;9.790;2024-03-22T12:39:31;101562.41;;;22.88;87.46
51299;BME280;37382;45.192;9.790;2024-03-22T12:41:58;101551.88;;;23.13;87.07